Terminal Aerodrome Forecast
Issued by NWS Denver/Boulder, CO

Home | Current Version | Previous Version | Text Only | Print | Product List | Glossary On
Versions: 1 2 3 4 5 6 7 8 9 10 11 12 13 14 15 16 17 18 19 20 21 22 23 24 25 26 27 28 29 30 31 32 33 34 35 36 37 38 39 40 41 42 43 44 45 46 47 48
000
FTUS45 KBOU 230902 AAB
TAFDEN
TAF AMD
KDEN 230902Z 2309/2412 18014G21KT P6SM BKN220
     FM231100 21011KT P6SM BKN220
     FM231400 24013KT P6SM SCT120 BKN200
     FM231700 28015KT P6SM SCT080 BKN180
     FM232000 32015KT P6SM SCT080 BKN150
     FM232200 35012KT P6SM SCT070 OVC140
     FM240400 32007KT P6SM SCT140 BKN200
     FM240600 25006KT P6SM FEW200=

USA.gov is the U.S. government's official web portal to all federal, state and local government web resources and services.